Time;durP1;ratioP1;P1;durP2;ratioP2;P2;SDS_P1;SDS_P2;PMS_P1;PMS_P2;Temp;Humidity;BMP_temperature;BMP_pressure;BME280_temperature;BME280_humidity;BME280_pressure;Samples;Min_cycle;Max_cycle;Signal;HPM_P1;HPM_P2
2022/10/23 00:01:54;;;;;;;;;13.33;11.33;;;;;;;;5007564;28;45635;-66
2022/10/23 00:04:21;;;;;;;;;10.67;10.33;;;;;;;;5009368;28;45798;-64
2022/10/23 00:06:46;;;;;;;;;12.33;9.67;;;;;;;;5001336;28;45656;-64
2022/10/23 00:09:14;;;;;;;;;11.67;11.33;;;;;;;;4998205;28;45603;-64
2022/10/23 00:11:41;;;;;;;;;9.00;8.33;;;;;;;;5010772;28;46130;-65
2022/10/23 00:14:07;;;;;;;;;9.33;8.00;;;;;;;;5011393;28;45782;-65
2022/10/23 00:16:32;;;;;;;;;9.67;8.67;;;;;;;;5011890;28;45792;-64
2022/10/23 00:18:58;;;;;;;;;10.33;10.00;;;;;;;;4995186;28;45468;-64
2022/10/23 00:21:23;;;;;;;;;13.33;5.67;;;;;;;;5012278;28;46569;-63
2022/10/23 00:23:48;;;;;;;;;6.33;6.33;;;;;;;;5014489;28;45229;-64
2022/10/23 00:26:14;;;;;;;;;10.00;8.67;;;;;;;;5013079;28;45641;-63
2022/10/23 00:28:40;;;;;;;;;8.00;7.33;;;;;;;;5013781;28;45719;-64
2022/10/23 00:31:06;;;;;;;;;9.33;7.67;;;;;;;;5013902;28;45577;-63
2022/10/23 00:33:31;;;;;;;;;7.33;7.33;;;;;;;;5013112;28;45363;-65
2022/10/23 00:35:56;;;;;;;;;5.33;5.33;;;;;;;;5006932;28;45724;-63
2022/10/23 00:38:22;;;;;;;;;8.33;7.67;;;;;;;;5007404;28;45636;-64
2022/10/23 00:40:47;;;;;;;;;6.67;6.00;;;;;;;;5000481;28;45395;-64
2022/10/23 00:43:16;;;;;;;;;9.00;9.00;;;;;;;;5001182;28;45785;-65
2022/10/23 00:45:41;;;;;;;;;4.00;4.00;;;;;;;;5006738;28;45418;-64
2022/10/23 00:48:06;;;;;;;;;7.33;6.33;;;;;;;;5017697;28;45346;-64
2022/10/23 00:50:32;;;;;;;;;7.00;7.00;;;;;;;;5012043;28;45514;-64
2022/10/23 00:52:59;;;;;;;;;6.00;6.00;;;;;;;;4994771;28;45712;-67
2022/10/23 00:55:25;;;;;;;;;4.33;4.33;;;;;;;;5012749;28;45327;-64
2022/10/23 00:57:51;;;;;;;;;6.33;6.00;;;;;;;;5001030;28;45406;-63
2022/10/23 01:00:24;;;;;;;;;9.00;5.67;;;;;;;;5012035;28;45918;-64
2022/10/23 01:02:50;;;;;;;;;9.67;8.33;;;;;;;;5013132;28;45697;-64
2022/10/23 01:05:15;;;;;;;;;9.00;6.67;;;;;;;;4997855;28;45341;-64
2022/10/23 01:07:53;;;;;;;;;8.33;6.67;;;;;;;;5013101;28;45432;-64
2022/10/23 01:10:22;;;;;;;;;7.33;7.00;;;;;;;;5013356;28;45702;-62
2022/10/23 01:12:50;;;;;;;;;6.67;6.00;;;;;;;;5004293;28;45685;-64
2022/10/23 01:15:21;;;;;;;;;8.00;7.33;;;;;;;;4995892;28;45669;-63
2022/10/23 01:17:49;;;;;;;;;7.33;5.33;;;;;;;;5011611;28;45807;-62
2022/10/23 01:20:17;;;;;;;;;7.33;6.00;;;;;;;;5011618;28;45473;-63
2022/10/23 01:22:53;;;;;;;;;6.33;6.33;;;;;;;;5012726;28;45924;-64
2022/10/23 01:25:18;;;;;;;;;6.00;5.00;;;;;;;;5012549;28;45445;-63
2022/10/23 01:27:47;;;;;;;;;6.00;6.00;;;;;;;;5016012;28;45351;-63
2022/10/23 01:30:14;;;;;;;;;7.33;6.00;;;;;;;;4984104;28;47124;-66
2022/10/23 01:32:42;;;;;;;;;6.33;5.33;;;;;;;;4991467;28;45426;-64
2022/10/23 01:35:26;;;;;;;;;10.33;6.00;;;;;;;;4986943;28;45484;-63
2022/10/23 01:38:17;;;;;;;;;5.33;5.33;;;;;;;;4997270;28;45746;-63
2022/10/23 01:40:46;;;;;;;;;7.33;7.33;;;;;;;;5003450;28;45552;-64
2022/10/23 01:43:15;;;;;;;;;8.33;5.67;;;;;;;;4995026;28;45799;-62
2022/10/23 01:45:49;;;;;;;;;5.00;5.00;;;;;;;;5006336;28;45367;-62
2022/10/23 01:48:17;;;;;;;;;4.00;2.00;;;;;;;;4986102;28;46024;-65
2022/10/23 01:50:43;;;;;;;;;6.00;6.00;;;;;;;;5024628;28;45600;-63
2022/10/23 01:53:09;;;;;;;;;7.67;7.33;;;;;;;;5012146;28;45430;-63
2022/10/23 01:55:35;;;;;;;;;7.67;6.00;;;;;;;;4997442;28;45316;-65
2022/10/23 01:58:01;;;;;;;;;6.00;5.00;;;;;;;;4997752;28;47268;-64
2022/10/23 02:00:27;;;;;;;;;9.33;7.00;;;;;;;;4996586;28;45756;-64
2022/10/23 02:02:53;;;;;;;;;7.33;4.33;;;;;;;;4994778;28;45729;-63
2022/10/23 02:05:28;;;;;;;;;8.67;5.00;;;;;;;;5011705;28;45873;-63
2022/10/23 02:07:54;;;;;;;;;6.33;3.00;;;;;;;;5011952;28;45740;-62
2022/10/23 02:10:20;;;;;;;;;3.67;3.67;;;;;;;;4990229;28;45906;-63
2022/10/23 02:13:00;;;;;;;;;7.33;6.33;;;;;;;;5002078;28;45432;-63
2022/10/23 02:15:30;;;;;;;;;6.00;4.00;;;;;;;;4994165;28;45564;-63
2022/10/23 02:18:06;;;;;;;;;4.00;4.00;;;;;;;;5012030;28;45603;-63
2022/10/23 02:20:39;;;;;;;;;4.00;4.00;;;;;;;;4993828;28;45387;-64
2022/10/23 02:23:15;;;;;;;;;5.00;3.67;;;;;;;;5006720;28;45901;-63
2022/10/23 02:25:53;;;;;;;;;5.00;4.00;;;;;;;;5020263;28;45339;-63
2022/10/23 02:28:22;;;;;;;;;3.33;3.33;;;;;;;;4997273;28;45773;-64
2022/10/23 02:30:49;;;;;;;;;6.67;3.67;;;;;;;;4974520;28;46403;-64
2022/10/23 02:33:15;;;;;;;;;6.67;5.00;;;;;;;;5009230;28;45299;-63
2022/10/23 02:35:40;;;;;;;;;5.67;4.00;;;;;;;;4994580;28;45745;-64
2022/10/23 02:38:25;;;;;;;;;3.00;3.00;;;;;;;;5011433;28;45580;-64
2022/10/23 02:40:51;;;;;;;;;5.67;4.00;;;;;;;;5004462;28;45719;-63
2022/10/23 02:43:22;;;;;;;;;4.00;4.00;;;;;;;;4994146;28;45371;-62
2022/10/23 02:46:14;;;;;;;;;4.00;3.00;;;;;;;;4997432;28;45527;-63
2022/10/23 02:48:47;;;;;;;;;5.67;3.00;;;;;;;;5002467;28;45426;-63
2022/10/23 02:51:12;;;;;;;;;4.00;4.00;;;;;;;;5005054;28;46794;-63
2022/10/23 02:53:38;;;;;;;;;4.00;4.00;;;;;;;;5011304;28;45796;-64
2022/10/23 02:56:22;;;;;;;;;2.33;2.33;;;;;;;;4997753;28;45592;-63
2022/10/23 02:58:55;;;;;;;;;2.33;2.00;;;;;;;;5025624;28;45788;-63
2022/10/23 03:01:25;;;;;;;;;3.00;3.00;;;;;;;;5004240;28;45727;-63
2022/10/23 03:03:52;;;;;;;;;3.00;3.00;;;;;;;;5002581;28;45441;-64
2022/10/23 03:06:17;;;;;;;;;3.00;3.00;;;;;;;;5004510;28;45868;-63
2022/10/23 03:08:52;;;;;;;;;2.67;2.67;;;;;;;;5015016;28;45541;-62
2022/10/23 03:11:17;;;;;;;;;2.67;2.33;;;;;;;;5022696;28;45742;-63
2022/10/23 03:13:42;;;;;;;;;4.00;4.00;;;;;;;;5014165;28;45696;-65
2022/10/23 03:16:08;;;;;;;;;3.00;3.00;;;;;;;;4996241;28;45822;-64
2022/10/23 03:18:33;;;;;;;;;4.00;2.33;;;;;;;;5002911;28;45755;-63
2022/10/23 03:20:58;;;;;;;;;5.00;4.67;;;;;;;;4987510;28;46077;-64
2022/10/23 03:23:23;;;;;;;;;8.33;7.00;;;;;;;;5000124;28;45447;-63
2022/10/23 03:25:49;;;;;;;;;3.00;3.00;;;;;;;;5014666;28;45303;-63
2022/10/23 03:28:14;;;;;;;;;4.00;3.00;;;;;;;;5004658;28;45261;-64
2022/10/23 03:30:39;;;;;;;;;5.67;5.00;;;;;;;;4998334;28;46121;-64
2022/10/23 03:33:04;;;;;;;;;8.67;4.67;;;;;;;;5001293;28;45633;-63
2022/10/23 03:35:30;;;;;;;;;3.00;3.00;;;;;;;;5010203;28;45828;-63
2022/10/23 03:37:55;;;;;;;;;5.00;4.67;;;;;;;;5003574;28;45994;-63
2022/10/23 03:40:20;;;;;;;;;4.00;4.00;;;;;;;;5013393;28;45301;-63
2022/10/23 03:42:46;;;;;;;;;5.00;4.00;;;;;;;;5013207;28;45261;-63
2022/10/23 03:45:11;;;;;;;;;4.67;4.67;;;;;;;;5013910;28;45494;-63
2022/10/23 03:47:39;;;;;;;;;4.00;4.00;;;;;;;;5013827;28;45283;-64
2022/10/23 03:50:05;;;;;;;;;5.67;4.00;;;;;;;;5012515;28;45690;-63
2022/10/23 03:52:30;;;;;;;;;3.33;2.33;;;;;;;;5009925;28;45387;-64
2022/10/23 03:54:56;;;;;;;;;10.33;8.33;;;;;;;;5014586;28;45476;-63
2022/10/23 03:57:21;;;;;;;;;6.33;4.67;;;;;;;;5014140;28;45600;-62
2022/10/23 03:59:46;;;;;;;;;8.00;4.33;;;;;;;;5014439;28;45683;-62
2022/10/23 04:02:12;;;;;;;;;6.00;4.67;;;;;;;;5013895;28;45440;-64
2022/10/23 04:04:37;;;;;;;;;5.67;4.00;;;;;;;;5009030;28;45394;-62
2022/10/23 04:07:02;;;;;;;;;3.00;3.00;;;;;;;;4995357;28;45415;-65
2022/10/23 04:09:27;;;;;;;;;2.00;2.00;;;;;;;;5012729;28;45408;-63
2022/10/23 04:11:54;;;;;;;;;3.00;3.00;;;;;;;;4992212;28;45738;-63
2022/10/23 04:14:19;;;;;;;;;4.00;3.00;;;;;;;;5008895;28;45414;-62
2022/10/23 04:16:44;;;;;;;;;4.67;4.67;;;;;;;;5013341;28;45364;-65
2022/10/23 04:19:10;;;;;;;;;4.67;3.33;;;;;;;;5000853;28;46275;-64
2022/10/23 04:21:35;;;;;;;;;4.33;4.33;;;;;;;;4995910;28;45714;-65
2022/10/23 04:24:00;;;;;;;;;5.00;2.00;;;;;;;;4990459;28;45559;-63
2022/10/23 04:26:25;;;;;;;;;3.33;2.33;;;;;;;;4979972;28;45802;-63
2022/10/23 04:28:51;;;;;;;;;6.00;4.67;;;;;;;;4996729;28;45946;-63
2022/10/23 04:31:16;;;;;;;;;4.00;4.00;;;;;;;;4995477;28;45736;-63
2022/10/23 04:33:41;;;;;;;;;1.00;1.00;;;;;;;;4993225;28;45828;-64
2022/10/23 04:36:07;;;;;;;;;4.67;4.00;;;;;;;;4997431;28;45814;-62
2022/10/23 04:38:32;;;;;;;;;4.67;3.00;;;;;;;;4993418;28;46169;-63
2022/10/23 04:40:57;;;;;;;;;6.67;4.00;;;;;;;;4995248;28;45786;-63
2022/10/23 04:43:23;;;;;;;;;6.00;3.33;;;;;;;;4991110;28;45982;-64
2022/10/23 04:45:48;;;;;;;;;4.00;3.00;;;;;;;;4993474;28;45770;-63
2022/10/23 04:48:14;;;;;;;;;3.00;3.00;;;;;;;;5004733;28;45646;-64
2022/10/23 04:50:39;;;;;;;;;4.33;4.00;;;;;;;;5007043;28;45356;-63
2022/10/23 04:53:04;;;;;;;;;3.33;3.33;;;;;;;;5000685;28;45720;-62
2022/10/23 04:55:29;;;;;;;;;4.00;2.67;;;;;;;;5000187;28;46226;-64
2022/10/23 04:57:55;;;;;;;;;6.33;4.00;;;;;;;;4995992;28;46015;-63
2022/10/23 05:00:20;;;;;;;;;3.00;3.00;;;;;;;;4993846;28;45471;-63
2022/10/23 05:02:45;;;;;;;;;4.33;4.33;;;;;;;;4995023;28;45512;-62
2022/10/23 05:05:10;;;;;;;;;4.00;4.00;;;;;;;;5003426;28;46115;-63
2022/10/23 05:07:36;;;;;;;;;3.75;3.75;;;;;;;;5015615;28;45976;-64
2022/10/23 05:10:02;;;;;;;;;4.00;4.00;;;;;;;;5001443;28;45643;-64
2022/10/23 05:12:27;;;;;;;;;4.00;4.00;;;;;;;;5007601;28;45769;-63
2022/10/23 05:14:53;;;;;;;;;6.33;4.00;;;;;;;;4999721;28;45632;-64
2022/10/23 05:17:25;;;;;;;;;4.00;4.00;;;;;;;;5011886;28;45647;-63
2022/10/23 05:19:52;;;;;;;;;3.33;2.67;;;;;;;;5011115;28;45933;-63
2022/10/23 05:22:18;;;;;;;;;5.00;4.00;;;;;;;;5008703;28;45809;-64
2022/10/23 05:24:44;;;;;;;;;5.00;5.00;;;;;;;;5010565;28;45779;-63
2022/10/23 05:27:09;;;;;;;;;4.67;4.00;;;;;;;;5007034;28;46358;-65
2022/10/23 05:29:34;;;;;;;;;6.00;5.00;;;;;;;;5023792;28;45401;-64
2022/10/23 05:32:01;;;;;;;;;5.33;5.33;;;;;;;;4991434;28;45454;-65
2022/10/23 05:34:28;;;;;;;;;6.00;6.00;;;;;;;;5006242;28;47552;-63
2022/10/23 05:36:53;;;;;;;;;5.00;4.33;;;;;;;;5013452;28;45940;-63
2022/10/23 05:39:19;;;;;;;;;4.67;4.00;;;;;;;;5022487;28;45491;-64
2022/10/23 05:41:44;;;;;;;;;5.00;5.00;;;;;;;;5012621;28;45841;-64
2022/10/23 05:44:10;;;;;;;;;0.67;0.00;;;;;;;;5011960;28;45804;-63
2022/10/23 05:46:42;;;;;;;;;3.33;3.33;;;;;;;;5011501;28;46557;-65
2022/10/23 05:49:07;;;;;;;;;5.00;4.33;;;;;;;;5011305;28;45467;-65
2022/10/23 05:51:37;;;;;;;;;5.67;5.33;;;;;;;;5007214;28;45764;-65
2022/10/23 05:54:02;;;;;;;;;5.00;4.00;;;;;;;;5004951;28;45547;-67
2022/10/23 05:56:28;;;;;;;;;5.33;4.33;;;;;;;;5009282;28;46128;-65
2022/10/23 05:58:53;;;;;;;;;4.00;4.00;;;;;;;;5012357;28;45680;-65
2022/10/23 06:01:18;;;;;;;;;9.33;6.00;;;;;;;;5012367;28;45705;-65
2022/10/23 06:03:43;;;;;;;;;7.33;5.33;;;;;;;;5001847;28;45700;-64
2022/10/23 06:06:09;;;;;;;;;4.33;4.33;;;;;;;;5001918;28;45920;-64
2022/10/23 06:08:34;;;;;;;;;7.00;5.33;;;;;;;;5006149;28;45671;-62
2022/10/23 06:11:06;;;;;;;;;4.33;4.33;;;;;;;;5011014;28;45454;-66
2022/10/23 06:13:32;;;;;;;;;6.00;4.00;;;;;;;;5010607;28;45605;-65
2022/10/23 06:15:57;;;;;;;;;8.33;6.33;;;;;;;;5010414;28;45941;-66
2022/10/23 06:18:22;;;;;;;;;10.33;5.00;;;;;;;;4984601;28;45757;-64
2022/10/23 06:20:47;;;;;;;;;6.00;5.00;;;;;;;;5000561;28;45580;-63
2022/10/23 06:23:13;;;;;;;;;8.67;8.33;;;;;;;;4996619;28;45906;-64
2022/10/23 06:25:38;;;;;;;;;8.00;6.00;;;;;;;;5001884;28;45448;-64
2022/10/23 06:28:03;;;;;;;;;6.00;5.33;;;;;;;;5004784;28;45692;-65
2022/10/23 06:30:28;;;;;;;;;5.33;4.33;;;;;;;;5003485;28;45933;-65
2022/10/23 06:32:54;;;;;;;;;10.33;7.33;;;;;;;;5007254;28;45331;-65
2022/10/23 06:35:19;;;;;;;;;5.67;4.33;;;;;;;;4998744;28;46351;-63
2022/10/23 06:37:44;;;;;;;;;3.67;3.67;;;;;;;;5001308;28;45656;-65
2022/10/23 06:40:10;;;;;;;;;7.00;6.00;;;;;;;;5002124;28;45586;-63
2022/10/23 06:42:35;;;;;;;;;5.00;4.00;;;;;;;;5011558;28;45973;-64
2022/10/23 06:45:00;;;;;;;;;6.33;6.33;;;;;;;;5006040;28;46054;-64
2022/10/23 06:47:26;;;;;;;;;9.00;5.00;;;;;;;;5005956;28;45409;-67
2022/10/23 06:49:51;;;;;;;;;6.33;6.00;;;;;;;;5008129;28;45640;-66
2022/10/23 06:52:16;;;;;;;;;6.00;5.00;;;;;;;;5006536;28;45605;-64
2022/10/23 06:54:41;;;;;;;;;4.00;4.00;;;;;;;;5007539;28;45669;-64
2022/10/23 06:57:07;;;;;;;;;6.00;6.00;;;;;;;;5010967;28;45698;-64
2022/10/23 06:59:32;;;;;;;;;61.00;46.67;;;;;;;;5013314;28;45522;-65
2022/10/23 07:01:57;;;;;;;;;28.00;22.67;;;;;;;;5013461;28;45298;-64
2022/10/23 07:04:22;;;;;;;;;9.00;8.67;;;;;;;;5003273;28;45823;-65
2022/10/23 07:06:48;;;;;;;;;3.00;2.00;;;;;;;;5008139;28;45707;-64
2022/10/23 07:09:13;;;;;;;;;9.00;7.00;;;;;;;;5013915;28;45960;-64
2022/10/23 07:11:38;;;;;;;;;4.33;4.33;;;;;;;;5011511;28;45877;-65
2022/10/23 07:14:04;;;;;;;;;8.67;4.00;;;;;;;;5011205;28;46532;-66
2022/10/23 07:16:29;;;;;;;;;9.00;6.00;;;;;;;;5012144;28;45689;-68
2022/10/23 07:18:59;;;;;;;;;6.33;5.00;;;;;;;;5013175;28;46105;-66
2022/10/23 07:21:26;;;;;;;;;7.00;4.00;;;;;;;;5011377;28;45423;-66
2022/10/23 07:23:51;;;;;;;;;6.00;4.33;;;;;;;;5011719;28;45867;-64
2022/10/23 07:26:17;;;;;;;;;17.67;11.67;;;;;;;;5003440;28;45758;-65
2022/10/23 07:28:43;;;;;;;;;6.67;6.67;;;;;;;;5003403;28;45592;-64
2022/10/23 07:31:09;;;;;;;;;7.67;7.67;;;;;;;;5012626;28;45764;-64
2022/10/23 07:33:34;;;;;;;;;8.33;6.67;;;;;;;;5003247;28;46208;-65
2022/10/23 07:36:00;;;;;;;;;8.00;5.00;;;;;;;;5004321;28;45390;-66
2022/10/23 07:38:26;;;;;;;;;7.67;6.67;;;;;;;;5009778;28;45484;-68
2022/10/23 07:40:52;;;;;;;;;5.67;4.00;;;;;;;;5006191;28;45812;-65
2022/10/23 07:43:19;;;;;;;;;7.00;7.00;;;;;;;;5011102;28;46250;-64
2022/10/23 07:45:48;;;;;;;;;5.33;5.00;;;;;;;;5009479;28;45670;-66
2022/10/23 07:48:13;;;;;;;;;6.00;6.00;;;;;;;;5011005;28;45695;-66
2022/10/23 07:50:38;;;;;;;;;8.67;6.33;;;;;;;;5011171;28;45660;-67
2022/10/23 07:53:04;;;;;;;;;8.00;6.67;;;;;;;;5013215;28;45710;-65
2022/10/23 07:55:29;;;;;;;;;10.00;7.00;;;;;;;;5012944;28;45347;-64
2022/10/23 07:57:54;;;;;;;;;6.33;6.33;;;;;;;;4996387;28;45743;-66
2022/10/23 08:00:20;;;;;;;;;9.33;6.00;;;;;;;;5012533;28;46376;-66
2022/10/23 08:02:45;;;;;;;;;7.67;7.00;;;;;;;;5012770;28;46073;-64
2022/10/23 08:05:10;;;;;;;;;8.67;6.33;;;;;;;;5014058;28;45387;-67
2022/10/23 08:07:35;;;;;;;;;7.00;5.00;;;;;;;;5002662;28;45538;-68
2022/10/23 08:10:01;;;;;;;;;7.33;6.67;;;;;;;;5010746;28;45510;-65
2022/10/23 08:12:26;;;;;;;;;6.00;6.00;;;;;;;;5011340;28;46519;-66
2022/10/23 08:14:51;;;;;;;;;4.33;4.33;;;;;;;;5010025;28;45814;-66
2022/10/23 08:17:17;;;;;;;;;7.00;6.00;;;;;;;;5011484;28;45640;-66
2022/10/23 08:19:45;;;;;;;;;9.00;5.67;;;;;;;;5003593;28;45713;-65
2022/10/23 08:22:10;;;;;;;;;6.00;5.67;;;;;;;;5006683;28;47228;-65
2022/10/23 08:24:36;;;;;;;;;8.67;7.00;;;;;;;;4999748;28;45316;-65
2022/10/23 08:27:01;;;;;;;;;5.00;4.00;;;;;;;;5003303;28;45339;-69
2022/10/23 08:29:26;;;;;;;;;5.33;4.33;;;;;;;;4997357;28;45998;-65
2022/10/23 08:31:52;;;;;;;;;5.25;4.25;;;;;;;;5004370;28;46548;-66
2022/10/23 08:34:17;;;;;;;;;6.75;6.75;;;;;;;;5000597;28;45709;-65
2022/10/23 08:36:43;;;;;;;;;5.00;4.33;;;;;;;;5010246;28;45895;-65
2022/10/23 08:39:08;;;;;;;;;7.25;4.25;;;;;;;;5003853;28;45359;-66
2022/10/23 08:41:41;;;;;;;;;8.33;6.00;;;;;;;;5001712;28;47054;-65
2022/10/23 08:44:18;;;;;;;;;7.00;4.00;;;;;;;;4998478;28;45702;-64
2022/10/23 08:46:46;;;;;;;;;7.00;5.33;;;;;;;;5000572;28;45819;-65
2022/10/23 08:49:30;;;;;;;;;6.67;5.67;;;;;;;;4999904;28;45502;-64
2022/10/23 08:51:57;;;;;;;;;5.00;5.00;;;;;;;;4997592;28;45762;-66
2022/10/23 08:54:33;;;;;;;;;5.00;3.67;;;;;;;;5019650;28;45739;-64
2022/10/23 08:57:03;;;;;;;;;6.00;6.00;;;;;;;;5012296;28;45406;-64
2022/10/23 08:59:36;;;;;;;;;7.00;5.00;;;;;;;;4999992;28;45447;-65
2022/10/23 09:02:31;;;;;;;;;5.00;5.00;;;;;;;;5004679;28;45686;-65
2022/10/23 09:04:57;;;;;;;;;10.50;6.00;;;;;;;;4994984;28;46412;-65
2022/10/23 09:07:22;;;;;;;;;6.50;5.00;;;;;;;;5011587;28;45689;-65
2022/10/23 09:10:01;;;;;;;;;5.00;5.00;;;;;;;;5000907;28;45861;-65
2022/10/23 09:12:28;;;;;;;;;3.75;3.75;;;;;;;;5006498;28;45391;-64
2022/10/23 09:14:53;;;;;;;;;4.75;4.00;;;;;;;;5007157;28;45776;-66
2022/10/23 09:17:24;;;;;;;;;5.00;3.00;;;;;;;;5009100;28;45814;-65
2022/10/23 09:19:54;;;;;;;;;3.25;3.25;;;;;;;;5009376;28;45312;-66
2022/10/23 09:22:19;;;;;;;;;6.00;5.50;;;;;;;;5012506;28;46583;-64
2022/10/23 09:24:45;;;;;;;;;3.50;3.50;;;;;;;;5011778;28;45495;-65
2022/10/23 09:27:19;;;;;;;;;6.00;4.00;;;;;;;;4994633;28;46024;-63
2022/10/23 09:29:54;;;;;;;;;5.50;3.00;;;;;;;;5004827;28;45697;-64
2022/10/23 09:32:30;;;;;;;;;6.00;5.00;;;;;;;;4991701;28;47407;-65
2022/10/23 09:34:56;;;;;;;;;5.50;4.50;;;;;;;;5006687;28;45413;-66
2022/10/23 09:37:23;;;;;;;;;6.50;5.00;;;;;;;;5012662;28;45678;-66
2022/10/23 09:39:48;;;;;;;;;3.75;3.50;;;;;;;;5005290;28;45433;-67
2022/10/23 09:42:21;;;;;;;;;6.00;4.50;;;;;;;;5012302;28;45444;-65
2022/10/23 09:44:48;;;;;;;;;3.50;3.50;;;;;;;;5006499;28;46239;-65
2022/10/23 09:47:19;;;;;;;;;4.75;4.00;;;;;;;;5012828;28;45683;-65
2022/10/23 09:49:48;;;;;;;;;4.00;3.00;;;;;;;;5000863;28;45519;-65
2022/10/23 09:52:15;;;;;;;;;5.25;5.00;;;;;;;;5010878;28;46038;-67
2022/10/23 09:54:45;;;;;;;;;6.00;4.25;;;;;;;;5010946;28;45265;-66
2022/10/23 09:57:16;;;;;;;;;4.50;3.25;;;;;;;;5013562;28;45477;-67
2022/10/23 09:59:42;;;;;;;;;4.50;4.50;;;;;;;;5010784;28;45752;-69
2022/10/23 10:02:26;;;;;;;;;3.25;3.00;;;;;;;;5009842;28;45651;-66
2022/10/23 10:04:51;;;;;;;;;5.00;3.00;;;;;;;;5010761;28;45764;-65
2022/10/23 10:07:35;;;;;;;;;7.00;4.00;;;;;;;;4993892;28;45658;-66
2022/10/23 10:10:00;;;;;;;;;6.00;3.25;;;;;;;;5009628;28;45684;-67
2022/10/23 10:12:34;;;;;;;;;5.00;3.00;;;;;;;;5009349;28;45499;-67
2022/10/23 10:15:11;;;;;;;;;4.75;4.00;;;;;;;;5007552;28;45929;-65
2022/10/23 10:17:57;;;;;;;;;5.25;4.00;;;;;;;;5011573;28;45777;-67
2022/10/23 10:20:46;;;;;;;;;4.50;4.00;;;;;;;;5009949;28;45874;-67
2022/10/23 10:23:17;;;;;;;;;5.00;4.00;;;;;;;;5007609;28;45663;-66
2022/10/23 10:25:42;;;;;;;;;4.25;3.75;;;;;;;;5007521;28;45495;-65
2022/10/23 10:28:20;;;;;;;;;4.00;4.00;;;;;;;;5007490;28;45444;-66
2022/10/23 10:30:55;;;;;;;;;5.00;5.00;;;;;;;;5006944;28;45793;-66
2022/10/23 10:33:20;;;;;;;;;4.00;4.00;;;;;;;;4986464;28;47166;-65
2022/10/23 10:35:46;;;;;;;;;4.75;3.25;;;;;;;;5005015;28;45637;-66
2022/10/23 10:38:11;;;;;;;;;3.00;3.00;;;;;;;;5143674;22;46007;-72
2022/10/23 10:40:57;;;;;;;;;4.25;3.00;;;;;;;;5031225;28;45815;-73
2022/10/23 10:43:31;;;;;;;;;4.25;4.00;;;;;;;;5025141;28;45340;-72
2022/10/23 10:46:02;;;;;;;;;4.50;3.50;;;;;;;;5038107;28;45429;-65
2022/10/23 10:48:27;;;;;;;;;5.75;4.75;;;;;;;;5024471;28;45370;-67
2022/10/23 10:51:01;;;;;;;;;4.25;3.00;;;;;;;;5031520;28;45470;-65
2022/10/23 10:53:42;;;;;;;;;5.00;5.00;;;;;;;;5031177;28;46530;-66
2022/10/23 10:56:10;;;;;;;;;4.00;4.00;;;;;;;;5031170;28;45823;-66
2022/10/23 10:58:47;;;;;;;;;5.00;4.00;;;;;;;;5031015;28;45646;-65
2022/10/23 11:01:25;;;;;;;;;3.00;3.00;;;;;;;;5024627;28;45582;-66
2022/10/23 11:03:55;;;;;;;;;4.00;3.00;;;;;;;;5026771;28;45693;-68
2022/10/23 11:06:22;;;;;;;;;5.25;5.00;;;;;;;;5030735;28;45499;-67
2022/10/23 11:08:48;;;;;;;;;5.75;3.00;;;;;;;;5038207;28;45412;-66
2022/10/23 11:11:20;;;;;;;;;7.50;4.00;;;;;;;;5023719;28;46071;-65
2022/10/23 11:13:45;;;;;;;;;3.00;3.00;;;;;;;;5030872;28;45657;-65
2022/10/23 11:16:17;;;;;;;;;4.25;3.25;;;;;;;;5030488;28;45633;-67
2022/10/23 11:18:45;;;;;;;;;4.75;4.00;;;;;;;;5024299;28;45410;-67
2022/10/23 11:21:20;;;;;;;;;4.75;3.75;;;;;;;;5034179;28;45777;-66
2022/10/23 11:23:59;;;;;;;;;4.50;3.75;;;;;;;;5033594;28;46121;-68
2022/10/23 11:26:24;;;;;;;;;2.00;2.00;;;;;;;;5034138;28;45482;-67
2022/10/23 11:28:49;;;;;;;;;3.00;3.00;;;;;;;;5034353;28;45495;-68
2022/10/23 11:31:18;;;;;;;;;3.00;2.75;;;;;;;;5034260;28;45692;-67
2022/10/23 11:33:46;;;;;;;;;4.00;3.50;;;;;;;;5033466;28;45370;-67
2022/10/23 11:36:14;;;;;;;;;4.00;4.00;;;;;;;;5022291;28;45344;-65
2022/10/23 11:38:42;;;;;;;;;5.00;4.75;;;;;;;;5025911;28;45806;-65
2022/10/23 11:41:50;;;;;;;;;;;;;;;;;;;;;
2022/10/23 11:44:39;;;;;;;;;3.25;3.25;;;;;;;;5031731;28;74448;-80
2022/10/23 11:47:42;;;;;;;;;;;;;;;;;;;;;
2022/10/23 11:50:08;;;;;;;;;4.00;4.00;;;;;;;;5047604;28;45464;-80
2022/10/23 11:52:35;;;;;;;;;4.00;4.00;;;;;;;;5048530;28;45395;-81
2022/10/23 11:55:01;;;;;;;;;4.75;4.00;;;;;;;;5035037;28;46121;-80
2022/10/23 11:57:26;;;;;;;;;5.00;4.00;;;;;;;;5048604;28;45518;-81
2022/10/23 11:59:53;;;;;;;;;3.75;3.25;;;;;;;;5037019;28;45457;-80
2022/10/23 12:02:30;;;;;;;;;5.00;3.25;;;;;;;;5048288;28;45795;-81
2022/10/23 12:04:57;;;;;;;;;3.00;3.00;;;;;;;;5033559;28;48550;-81
2022/10/23 12:07:25;;;;;;;;;6.00;3.25;;;;;;;;5043307;28;45881;-81
2022/10/23 12:10:00;;;;;;;;;0.25;0.25;;;;;;;;5047255;28;45368;-83
2022/10/23 12:12:28;;;;;;;;;4.00;3.00;;;;;;;;5042954;28;45533;-77
2022/10/23 12:15:05;;;;;;;;;3.25;3.25;;;;;;;;5023746;28;46842;-79
2022/10/23 12:17:34;;;;;;;;;4.75;4.75;;;;;;;;5028643;28;46129;-76
2022/10/23 12:20:05;;;;;;;;;2.00;2.00;;;;;;;;5028752;28;45431;-79
2022/10/23 12:22:40;;;;;;;;;1.75;1.75;;;;;;;;5028069;28;45615;-77
2022/10/23 12:25:19;;;;;;;;;5.50;3.75;;;;;;;;5048513;28;45621;-84
2022/10/23 12:27:55;;;;;;;;;3.75;3.75;;;;;;;;5036521;28;45381;-84
2022/10/23 12:30:32;;;;;;;;;4.00;3.00;;;;;;;;5038686;28;44796;-85
2022/10/23 12:33:00;;;;;;;;;2.75;2.75;;;;;;;;5059593;28;45505;-83
2022/10/23 12:35:46;;;;;;;;;2.25;2.25;;;;;;;;5039545;28;47025;-85
2022/10/23 12:38:11;;;;;;;;;4.75;3.25;;;;;;;;5033619;28;45326;-85
2022/10/23 12:40:37;;;;;;;;;4.00;3.00;;;;;;;;5051087;28;45422;-85
2022/10/23 12:43:02;;;;;;;;;4.00;2.75;;;;;;;;5038911;28;45342;-85
2022/10/23 12:45:30;;;;;;;;;3.50;3.00;;;;;;;;5053888;28;45794;-85
2022/10/23 12:47:55;;;;;;;;;2.00;2.00;;;;;;;;5034135;28;45578;-85
2022/10/23 12:50:25;;;;;;;;;3.00;2.00;;;;;;;;5050760;28;45768;-83
2022/10/23 12:52:51;;;;;;;;;1.50;1.00;;;;;;;;5038017;28;45506;-85
2022/10/23 12:55:17;;;;;;;;;3.00;3.00;;;;;;;;5044379;28;46342;-85
2022/10/23 12:57:43;;;;;;;;;1.50;1.50;;;;;;;;5049081;28;45341;-85
2022/10/23 13:00:09;;;;;;;;;3.25;2.00;;;;;;;;5067213;28;45395;-84
2022/10/23 13:02:36;;;;;;;;;1.25;1.25;;;;;;;;5049264;28;45794;-84
2022/10/23 13:05:04;;;;;;;;;2.00;0.25;;;;;;;;5043724;28;45064;-83
2022/10/23 13:07:32;;;;;;;;;2.00;1.00;;;;;;;;5037782;28;45470;-84
2022/10/23 13:09:58;;;;;;;;;2.00;2.00;;;;;;;;5033712;28;45610;-84
2022/10/23 13:12:26;;;;;;;;;2.75;2.75;;;;;;;;5047049;28;45379;-86
2022/10/23 13:15:02;;;;;;;;;3.00;2.00;;;;;;;;5044631;28;45435;-86
2022/10/23 13:17:41;;;;;;;;;4.00;2.75;;;;;;;;5025734;28;45866;-86
2022/10/23 13:20:09;;;;;;;;;3.00;2.25;;;;;;;;5029408;28;45503;-85
2022/10/23 13:22:34;;;;;;;;;3.50;2.50;;;;;;;;5049055;28;45798;-84
2022/10/23 13:25:00;;;;;;;;;3.00;3.00;;;;;;;;5034742;28;48122;-83
2022/10/23 13:27:32;;;;;;;;;3.50;1.75;;;;;;;;5049261;28;46262;-85
2022/10/23 13:29:58;;;;;;;;;2.00;2.00;;;;;;;;5061930;28;45423;-92
2022/10/23 13:32:25;;;;;;;;;4.00;2.00;;;;;;;;5051473;28;45935;-89
2022/10/23 13:35:00;;;;;;;;;4.25;3.25;;;;;;;;5053819;28;45662;-90
2022/10/23 13:37:27;;;;;;;;;1.75;1.75;;;;;;;;5041139;28;45932;-90
2022/10/23 13:40:08;;;;;;;;;3.00;3.00;;;;;;;;5041584;28;45545;-84
2022/10/23 13:42:34;;;;;;;;;3.50;2.75;;;;;;;;5033819;28;45759;-84
2022/10/23 13:45:00;;;;;;;;;3.00;2.00;;;;;;;;5038489;28;47966;-88
2022/10/23 13:47:26;;;;;;;;;3.00;3.00;;;;;;;;5061994;28;44785;-89
2022/10/23 13:49:58;;;;;;;;;2.00;2.00;;;;;;;;5078511;28;45309;-88
2022/10/23 13:52:26;;;;;;;;;2.00;2.00;;;;;;;;5068565;28;45719;-85
2022/10/23 13:54:51;;;;;;;;;4.75;4.00;;;;;;;;5051495;28;47975;-88
2022/10/23 13:57:17;;;;;;;;;4.00;3.00;;;;;;;;5049754;28;45651;-92
2022/10/23 13:59:47;;;;;;;;;4.00;4.00;;;;;;;;5071412;28;44791;-92
2022/10/23 14:02:18;;;;;;;;;2.75;2.75;;;;;;;;5068634;27;45458;-88
2022/10/23 14:04:45;;;;;;;;;2.75;2.00;;;;;;;;5072770;28;45958;-91
2022/10/23 14:07:10;;;;;;;;;4.00;3.75;;;;;;;;5053400;28;45894;-87
2022/10/23 14:09:36;;;;;;;;;5.50;4.25;;;;;;;;5032992;28;45635;-79
2022/10/23 14:12:01;;;;;;;;;4.25;1.00;;;;;;;;5047122;28;45855;-80
2022/10/23 14:14:27;;;;;;;;;1.00;1.00;;;;;;;;5042566;28;45436;-86
2022/10/23 14:16:53;;;;;;;;;2.25;2.00;;;;;;;;5029810;28;44824;-79
2022/10/23 14:19:20;;;;;;;;;3.25;2.50;;;;;;;;5041393;28;45716;-87
2022/10/23 14:21:46;;;;;;;;;7.00;4.00;;;;;;;;5062365;27;45440;-88
2022/10/23 14:24:13;;;;;;;;;5.00;1.00;;;;;;;;5063354;28;45792;-87
2022/10/23 14:26:42;;;;;;;;;2.75;2.25;;;;;;;;5068276;28;45478;-87
2022/10/23 14:29:08;;;;;;;;;4.75;2.75;;;;;;;;5026113;28;45459;-89
2022/10/23 14:31:33;;;;;;;;;2.25;2.25;;;;;;;;5060878;28;45349;-80
2022/10/23 14:34:01;;;;;;;;;4.00;3.00;;;;;;;;5049515;28;46070;-80
2022/10/23 14:36:28;;;;;;;;;5.00;4.00;;;;;;;;5024201;28;45666;-92
2022/10/23 14:38:54;;;;;;;;;2.25;2.25;;;;;;;;5050614;28;45522;-80
2022/10/23 14:41:19;;;;;;;;;6.00;2.25;;;;;;;;5039389;28;45645;-80
2022/10/23 14:43:45;;;;;;;;;3.00;2.00;;;;;;;;5041261;28;45451;-78
2022/10/23 14:46:18;;;;;;;;;2.00;2.00;;;;;;;;5032982;28;45729;-78
2022/10/23 14:48:47;;;;;;;;;5.50;2.00;;;;;;;;5040153;28;45498;-85
2022/10/23 14:51:48;;;;;;;;;2.00;1.00;;;;;;;;4992818;28;45761;-84